createdAt,value
2023-04-23T00:01:47.973Z,40.66
2023-04-23T00:04:19.244Z,40.65
2023-04-23T00:06:48.166Z,40.42
2023-04-23T00:09:16.997Z,40.55
2023-04-23T00:11:45.561Z,40.62
2023-04-23T00:14:13.457Z,40.57
2023-04-23T00:16:41.257Z,40.59
2023-04-23T00:19:09.062Z,40.81
2023-04-23T00:21:36.557Z,40.83
2023-04-23T00:24:04.152Z,40.88
2023-04-23T00:26:31.647Z,40.96
2023-04-23T00:28:59.214Z,41.08
2023-04-23T00:31:27.369Z,41.17
2023-04-23T00:33:56.070Z,41.40
2023-04-23T00:36:23.863Z,41.46
2023-04-23T00:38:51.585Z,41.57
2023-04-23T00:41:19.693Z,41.53
2023-04-23T00:43:47.658Z,41.41
2023-04-23T00:46:16.931Z,41.86
2023-04-23T00:48:46.371Z,41.81
2023-04-23T00:51:16.120Z,41.67
2023-04-23T00:53:43.753Z,41.53
2023-04-23T00:56:11.793Z,41.93
2023-04-23T00:58:39.835Z,41.93
2023-04-23T01:01:07.893Z,41.78
2023-04-23T01:03:37.623Z,42.37
2023-04-23T01:06:05.761Z,42.04
2023-04-23T01:08:35.252Z,42.20
2023-04-23T01:11:03.874Z,42.27
2023-04-23T01:13:31.873Z,42.42
2023-04-23T01:15:59.675Z,42.66
2023-04-23T01:18:27.739Z,42.58
2023-04-23T01:20:55.855Z,42.59
2023-04-23T01:23:23.466Z,42.46
2023-04-23T01:25:51.278Z,42.73
2023-04-23T01:28:19.078Z,42.50
2023-04-23T01:30:47.911Z,42.45
2023-04-23T01:33:16.361Z,42.23
2023-04-23T01:35:44.470Z,42.75
2023-04-23T01:38:14.391Z,42.41
2023-04-23T01:40:42.655Z,42.82
2023-04-23T01:43:11.161Z,42.54
2023-04-23T01:45:39.071Z,42.85
2023-04-23T01:48:06.764Z,42.88
2023-04-23T01:50:34.743Z,42.89
2023-04-23T01:53:02.306Z,43.08
2023-04-23T01:55:30.318Z,42.99
2023-04-23T01:57:59.541Z,43.04
2023-04-23T02:00:27.139Z,42.97
2023-04-23T02:02:54.777Z,43.01
2023-04-23T02:05:22.896Z,43.23
2023-04-23T02:07:51.539Z,43.22
2023-04-23T02:10:19.614Z,43.18
2023-04-23T02:12:47.498Z,43.27
2023-04-23T02:15:15.928Z,43.38
2023-04-23T02:17:43.802Z,43.48
2023-04-23T02:20:11.899Z,43.36
2023-04-23T02:22:41.366Z,43.44
2023-04-23T02:25:09.790Z,43.46
2023-04-23T02:27:37.505Z,43.31
2023-04-23T02:30:06.122Z,43.31
2023-04-23T02:32:33.759Z,43.42
2023-04-23T02:35:02.440Z,43.54
2023-04-23T02:37:33.413Z,43.19
2023-04-23T02:40:01.875Z,42.70
2023-04-23T02:42:32.710Z,42.63
2023-04-23T02:45:01.003Z,42.73
2023-04-23T02:47:33.414Z,42.52
2023-04-23T02:50:03.394Z,42.17
2023-04-23T02:52:33.277Z,42.06
2023-04-23T02:55:04.741Z,41.69
2023-04-23T02:57:32.721Z,41.13
2023-04-23T03:00:00.406Z,40.84
2023-04-23T03:02:36.853Z,40.61
2023-04-23T03:05:06.171Z,40.04
2023-04-23T03:07:33.907Z,39.94
2023-04-23T03:10:02.603Z,39.66
2023-04-23T03:12:32.422Z,39.36
2023-04-23T03:15:01.324Z,38.98
2023-04-23T03:17:32.396Z,37.96
2023-04-23T03:20:01.039Z,37.24
2023-04-23T03:22:31.846Z,37.00
2023-04-23T03:24:59.695Z,36.97
2023-04-23T03:27:27.722Z,37.21
2023-04-23T03:29:57.071Z,37.15
2023-04-23T03:32:24.903Z,37.27
2023-04-23T03:34:52.413Z,37.58
2023-04-23T03:37:20.741Z,37.65
2023-04-23T03:39:48.272Z,37.15
2023-04-23T03:42:16.383Z,37.44
2023-04-23T03:44:45.064Z,37.63
2023-04-23T03:47:12.700Z,37.59
2023-04-23T03:49:40.518Z,37.71
2023-04-23T03:52:09.188Z,38.00
2023-04-23T03:54:40.501Z,37.73
2023-04-23T03:57:12.766Z,37.93
2023-04-23T03:59:53.321Z,37.71
2023-04-23T04:02:21.274Z,37.43
2023-04-23T04:04:51.736Z,37.41
2023-04-23T04:07:19.646Z,36.82
2023-04-23T04:09:49.439Z,36.72
2023-04-23T04:12:17.214Z,35.72
2023-04-23T04:14:46.000Z,35.38
2023-04-23T04:17:16.105Z,34.97
2023-04-23T04:19:44.136Z,34.35
2023-04-23T04:22:11.771Z,34.32
2023-04-23T04:24:42.258Z,34.14
2023-04-23T04:27:10.329Z,33.75
2023-04-23T04:29:40.899Z,33.49
2023-04-23T04:32:09.617Z,33.26
2023-04-23T04:34:38.442Z,33.13
2023-04-23T04:37:06.808Z,32.95
2023-04-23T04:39:34.514Z,32.90
2023-04-23T04:42:03.512Z,32.81
2023-04-23T04:44:31.150Z,32.60
2023-04-23T04:46:58.851Z,32.47
2023-04-23T04:49:27.080Z,32.68
2023-04-23T04:51:54.964Z,32.56
2023-04-23T04:54:22.698Z,32.32
2023-04-23T04:56:50.469Z,32.34
2023-04-23T04:59:18.066Z,32.27
2023-04-23T05:01:46.105Z,32.29
2023-04-23T05:04:14.124Z,32.04
2023-04-23T05:06:41.956Z,31.67
2023-04-23T05:09:10.658Z,31.73
2023-04-23T05:11:38.571Z,31.59
2023-04-23T05:14:06.237Z,31.39
2023-04-23T05:16:34.645Z,31.33
2023-04-23T05:19:02.427Z,31.17
2023-04-23T05:21:30.217Z,30.98
2023-04-23T05:23:58.019Z,30.64
2023-04-23T05:26:25.888Z,31.10
2023-04-23T05:28:53.663Z,31.10
2023-04-23T05:31:21.650Z,30.61
2023-04-23T05:33:50.883Z,30.60
2023-04-23T05:36:19.217Z,30.99
2023-04-23T05:38:47.549Z,30.94
2023-04-23T05:41:15.742Z,30.73
2023-04-23T05:43:43.666Z,30.81
2023-04-23T05:46:11.432Z,30.57
2023-04-23T05:48:39.707Z,30.26
2023-04-23T05:51:07.698Z,29.79
2023-04-23T05:53:35.955Z,29.10
2023-04-23T05:56:04.418Z,28.43
2023-04-23T05:58:32.296Z,27.77
2023-04-23T06:01:00.488Z,27.50
2023-04-23T06:03:28.706Z,27.07
2023-04-23T06:05:56.556Z,26.89
2023-04-23T06:08:25.267Z,26.42
2023-04-23T06:10:53.320Z,26.12
2023-04-23T06:13:21.333Z,25.77
2023-04-23T06:15:48.932Z,25.77
2023-04-23T06:18:16.599Z,25.57
2023-04-23T06:20:45.162Z,25.52
2023-04-23T06:23:13.751Z,25.23
2023-04-23T06:25:41.348Z,24.98
2023-04-23T06:28:09.218Z,24.82
2023-04-23T06:30:49.294Z,24.66
2023-04-23T06:33:17.538Z,24.42
2023-04-23T06:35:46.875Z,24.10
2023-04-23T06:38:15.252Z,24.05
2023-04-23T06:40:42.927Z,24.02
2023-04-23T06:43:10.723Z,24.02
2023-04-23T06:45:57.207Z,23.91
2023-04-23T06:48:26.795Z,23.58
2023-04-23T06:50:54.648Z,23.54
2023-04-23T06:53:22.669Z,23.36
2023-04-23T06:55:51.462Z,23.19
2023-04-23T06:58:19.297Z,23.17
2023-04-23T07:00:47.057Z,23.39
2023-04-23T07:03:14.972Z,23.51
2023-04-23T07:05:43.191Z,23.37
2023-04-23T07:08:11.008Z,23.34
2023-04-23T07:10:39.083Z,23.41
2023-04-23T07:13:07.130Z,23.50
2023-04-23T07:15:35.054Z,23.22
2023-04-23T07:18:03.207Z,23.32
2023-04-23T07:20:30.874Z,23.12
2023-04-23T07:22:59.237Z,22.93
2023-04-23T07:25:27.341Z,22.75
2023-04-23T07:27:54.884Z,22.59
2023-04-23T07:30:24.473Z,22.44
2023-04-23T07:32:52.612Z,22.45
2023-04-23T07:35:20.484Z,22.28
2023-04-23T07:37:53.631Z,22.03
2023-04-23T07:40:22.492Z,22.05
2023-04-23T07:42:51.605Z,21.61
2023-04-23T07:45:19.812Z,21.41
2023-04-23T07:47:50.048Z,21.25
2023-04-23T07:50:17.855Z,21.04
2023-04-23T07:52:45.474Z,20.95
2023-04-23T07:55:13.084Z,20.64
2023-04-23T07:57:40.867Z,20.29
2023-04-23T08:00:09.632Z,19.90
2023-04-23T08:02:40.652Z,19.72
2023-04-23T08:05:09.011Z,19.19
2023-04-23T08:07:36.904Z,18.60
2023-04-23T08:10:06.442Z,17.73
2023-04-23T08:12:36.014Z,17.31
2023-04-23T08:15:04.373Z,16.48
2023-04-23T08:17:38.538Z,15.19
2023-04-23T08:20:11.994Z,14.19
2023-04-23T08:22:39.645Z,13.36
2023-04-23T08:25:07.704Z,13.00
2023-04-23T08:27:35.464Z,12.92
2023-04-23T08:30:03.266Z,12.52
2023-04-23T08:32:32.458Z,11.78
2023-04-23T08:35:00.289Z,11.36
2023-04-23T08:37:31.603Z,10.64
2023-04-23T08:40:01.372Z,10.47
2023-04-23T08:42:40.683Z,10.03
2023-04-23T08:45:08.760Z,9.83
2023-04-23T08:47:40.672Z,9.57
2023-04-23T08:50:11.151Z,9.58
2023-04-23T08:52:42.925Z,9.14
2023-04-23T08:55:10.899Z,8.75
2023-04-23T08:57:42.220Z,8.77
2023-04-23T09:00:11.821Z,8.92
2023-04-23T09:02:45.646Z,9.35
2023-04-23T09:05:14.431Z,10.28
2023-04-23T09:07:42.925Z,10.39
2023-04-23T09:10:12.994Z,10.33
2023-04-23T09:12:43.316Z,9.94
2023-04-23T09:15:12.792Z,9.67
2023-04-23T09:17:45.271Z,9.38
2023-04-23T09:20:15.301Z,9.12
2023-04-23T09:22:52.633Z,8.60
2023-04-23T09:25:22.472Z,8.77
2023-04-23T09:27:51.876Z,8.34
2023-04-23T09:30:22.572Z,8.24
2023-04-23T09:32:52.276Z,8.18
2023-04-23T09:35:20.288Z,7.36
2023-04-23T09:37:53.047Z,7.79
2023-04-23T09:40:23.705Z,8.46
2023-04-23T09:42:54.697Z,9.42
2023-04-23T09:45:25.224Z,9.70
2023-04-23T09:47:56.549Z,9.32
2023-04-23T09:50:39.170Z,8.93
2023-04-23T09:53:09.118Z,8.12
2023-04-23T09:55:39.736Z,8.38
2023-04-23T09:58:12.955Z,8.20
2023-04-23T10:00:41.692Z,7.58
2023-04-23T10:03:10.343Z,7.59
2023-04-23T10:08:15.300Z,7.09
2023-04-23T10:13:20.172Z,6.81
2023-04-23T10:15:48.959Z,6.42
2023-04-23T10:18:16.902Z,6.85
2023-04-23T10:20:44.897Z,7.03
2023-04-23T10:23:13.659Z,7.34
2023-04-23T10:25:42.882Z,7.46
2023-04-23T10:28:12.260Z,7.43
2023-04-23T10:30:40.902Z,7.36
2023-04-23T10:33:15.694Z,7.18
2023-04-23T10:35:52.181Z,6.58
2023-04-23T10:38:22.385Z,6.42
2023-04-23T10:40:53.842Z,6.43
2023-04-23T10:43:21.974Z,6.29
2023-04-23T10:45:50.643Z,6.43
2023-04-23T10:48:18.521Z,6.31
2023-04-23T10:51:06.997Z,5.70
2023-04-23T10:53:36.429Z,5.75
2023-04-23T10:56:07.999Z,5.53
2023-04-23T10:58:51.995Z,5.89
2023-04-23T11:01:22.149Z,5.58
2023-04-23T11:03:52.356Z,5.18
2023-04-23T11:06:43.480Z,6.09
2023-04-23T11:09:29.270Z,6.36
2023-04-23T11:12:00.204Z,7.20
2023-04-23T11:14:50.228Z,8.29
2023-04-23T11:17:22.242Z,7.91
2023-04-23T11:20:11.486Z,7.40
2023-04-23T11:22:49.942Z,7.70
2023-04-23T11:25:24.758Z,8.43
2023-04-23T11:27:54.381Z,8.58
2023-04-23T11:30:27.507Z,8.16
2023-04-23T11:32:57.348Z,7.65
2023-04-23T11:35:30.426Z,7.53
2023-04-23T11:37:58.352Z,7.52
2023-04-23T11:40:26.229Z,7.33
2023-04-23T11:42:57.830Z,7.09
2023-04-23T11:45:29.900Z,6.47
2023-04-23T11:47:59.256Z,6.55
2023-04-23T11:50:30.057Z,6.54
2023-04-23T11:52:58.005Z,7.26
2023-04-23T11:55:25.645Z,7.58
2023-04-23T11:57:53.227Z,7.64
2023-04-23T12:00:23.242Z,7.04
2023-04-23T12:02:53.771Z,6.36
2023-04-23T12:05:37.604Z,6.40
2023-04-23T12:08:12.727Z,6.03
2023-04-23T12:10:50.794Z,5.73
2023-04-23T12:13:22.471Z,6.04
2023-04-23T12:15:52.307Z,6.10
2023-04-23T12:18:20.315Z,5.62
2023-04-23T12:20:47.957Z,6.17
2023-04-23T12:23:15.847Z,6.15
2023-04-23T12:25:43.482Z,7.01
2023-04-23T12:28:10.988Z,7.37
2023-04-23T12:30:44.278Z,7.28
2023-04-23T12:33:12.164Z,7.18
2023-04-23T12:35:39.698Z,7.15
2023-04-23T12:38:07.708Z,8.39
2023-04-23T12:40:35.493Z,9.13
2023-04-23T12:43:03.024Z,8.76
2023-04-23T12:45:38.317Z,8.63
2023-04-23T12:48:06.012Z,7.85
2023-04-23T12:50:33.698Z,8.02
2023-04-23T12:53:01.394Z,8.05
2023-04-23T12:55:29.125Z,8.58
2023-04-23T12:57:56.814Z,9.41
2023-04-23T13:00:24.557Z,9.89
2023-04-23T13:02:52.503Z,9.96
2023-04-23T13:05:20.220Z,9.49
2023-04-23T13:07:47.853Z,9.30
2023-04-23T13:10:15.827Z,9.06
2023-04-23T13:12:43.706Z,9.04
2023-04-23T13:15:13.053Z,9.65
2023-04-23T13:17:41.501Z,10.82
2023-04-23T13:20:09.500Z,12.17
2023-04-23T13:22:37.154Z,12.84
2023-04-23T13:25:05.308Z,14.07
2023-04-23T13:27:33.031Z,14.65
2023-04-23T13:30:01.838Z,15.50
2023-04-23T13:32:32.800Z,16.39
2023-04-23T13:35:03.044Z,16.77
2023-04-23T13:37:32.538Z,16.99
2023-04-23T13:40:00.652Z,17.39
2023-04-23T13:42:29.028Z,17.79
2023-04-23T13:44:57.282Z,17.71
2023-04-23T13:47:25.109Z,18.31
2023-04-23T13:49:52.746Z,18.24
2023-04-23T13:52:20.338Z,18.50
2023-04-23T13:54:49.218Z,18.73
2023-04-23T13:57:16.908Z,18.76
2023-04-23T13:59:44.483Z,19.27
2023-04-23T14:02:12.401Z,19.44
2023-04-23T14:04:39.993Z,19.63
2023-04-23T14:07:07.679Z,19.67
2023-04-23T14:09:35.195Z,19.83
2023-04-23T14:12:02.852Z,19.88
2023-04-23T14:14:30.584Z,20.04
2023-04-23T14:16:58.286Z,20.26
2023-04-23T14:19:25.924Z,20.23
2023-04-23T14:21:53.438Z,20.33
2023-04-23T14:24:28.777Z,20.96
2023-04-23T14:26:57.095Z,20.54
2023-04-23T14:29:30.586Z,21.37
2023-04-23T14:31:58.284Z,21.00
2023-04-23T14:34:25.838Z,21.09
2023-04-23T14:36:53.902Z,21.26
2023-04-23T14:39:22.882Z,21.40
2023-04-23T14:41:50.633Z,21.35
2023-04-23T14:44:18.533Z,21.01
2023-04-23T14:46:46.173Z,21.33
2023-04-23T14:49:14.410Z,21.26
2023-04-23T14:51:42.226Z,21.41
2023-04-23T14:54:10.546Z,21.38
2023-04-23T14:56:38.292Z,21.49
2023-04-23T14:59:05.976Z,21.70
2023-04-23T15:01:33.550Z,21.72
2023-04-23T15:04:01.673Z,22.10
2023-04-23T15:06:29.823Z,22.08
2023-04-23T15:08:57.461Z,22.19
2023-04-23T15:11:25.043Z,22.00
2023-04-23T15:14:18.658Z,22.53
2023-04-23T15:16:48.768Z,22.30
2023-04-23T15:19:19.061Z,22.56
2023-04-23T15:21:47.595Z,22.69
2023-04-23T15:24:16.309Z,22.90
2023-04-23T15:26:46.171Z,22.96
2023-04-23T15:29:14.199Z,23.14
2023-04-23T15:31:42.349Z,23.04
2023-04-23T15:34:11.639Z,22.99
2023-04-23T15:36:39.199Z,23.16
2023-04-23T15:39:08.692Z,23.19
2023-04-23T15:41:38.546Z,23.21
2023-04-23T15:44:11.891Z,23.58
2023-04-23T15:46:40.184Z,23.41
2023-04-23T15:49:07.836Z,23.40
2023-04-23T15:51:36.264Z,23.44
2023-04-23T15:54:08.402Z,23.53
2023-04-23T15:56:36.760Z,23.45
2023-04-23T15:59:04.795Z,23.77
2023-04-23T16:01:32.670Z,23.95
2023-04-23T16:06:32.002Z,23.97
2023-04-23T16:08:59.741Z,23.96
2023-04-23T16:11:28.459Z,23.94
2023-04-23T16:13:57.164Z,24.18
2023-04-23T16:16:25.072Z,24.02
2023-04-23T16:18:53.450Z,24.21
2023-04-23T16:21:21.325Z,24.16
2023-04-23T16:23:49.122Z,24.24
2023-04-23T16:26:16.918Z,24.26
2023-04-23T16:28:45.829Z,24.29
2023-04-23T16:31:13.575Z,24.50
2023-04-23T16:33:41.238Z,24.71
2023-04-23T16:36:12.998Z,24.61
2023-04-23T16:38:41.922Z,24.90
2023-04-23T16:41:09.596Z,24.97
2023-04-23T16:43:37.138Z,25.00
2023-04-23T16:46:04.797Z,25.48
2023-04-23T16:48:32.487Z,25.40
2023-04-23T16:51:00.141Z,25.66
2023-04-23T16:53:27.942Z,25.86
2023-04-23T16:55:56.106Z,26.12
2023-04-23T16:58:23.758Z,25.85
2023-04-23T17:00:51.262Z,26.10
2023-04-23T17:03:18.883Z,26.37
2023-04-23T17:05:50.591Z,26.48
2023-04-23T17:08:18.473Z,26.46
2023-04-23T17:10:46.069Z,26.48
2023-04-23T17:13:13.658Z,26.98
2023-04-23T17:15:41.481Z,27.06
2023-04-23T17:18:10.570Z,26.78
2023-04-23T17:20:39.091Z,26.79
2023-04-23T17:23:09.660Z,27.29
2023-04-23T17:25:40.930Z,27.18
2023-04-23T17:28:08.621Z,27.16
2023-04-23T17:30:38.684Z,27.29
2023-04-23T17:33:06.458Z,27.39
2023-04-23T17:35:34.338Z,27.60
2023-04-23T17:38:01.907Z,27.58
2023-04-23T17:40:29.840Z,27.65
2023-04-23T17:42:58.820Z,27.67
2023-04-23T17:45:26.561Z,27.67
2023-04-23T17:47:54.376Z,27.67
2023-04-23T17:50:22.172Z,27.88
2023-04-23T17:52:51.751Z,28.04
2023-04-23T17:55:22.041Z,27.98
2023-04-23T17:57:50.645Z,28.27
2023-04-23T18:00:19.466Z,28.20
2023-04-23T18:02:47.408Z,28.28
2023-04-23T18:05:16.990Z,28.79
2023-04-23T18:07:44.965Z,28.39
2023-04-23T18:10:12.641Z,28.53
2023-04-23T18:12:40.537Z,28.37
2023-04-23T18:15:11.347Z,28.56
2023-04-23T18:17:39.526Z,28.89
2023-04-23T18:20:10.988Z,29.04
2023-04-23T18:22:39.200Z,28.81
2023-04-23T18:25:07.723Z,29.16
2023-04-23T18:27:35.665Z,29.30
2023-04-23T18:30:05.734Z,29.16
2023-04-23T18:32:42.729Z,29.83
2023-04-23T18:35:10.879Z,29.22
2023-04-23T18:37:44.147Z,29.73
2023-04-23T18:40:12.398Z,29.36
2023-04-23T18:42:40.467Z,29.10
2023-04-23T18:45:08.738Z,29.73
2023-04-23T18:47:49.606Z,29.95
2023-04-23T18:50:37.388Z,30.08
2023-04-23T18:53:05.577Z,30.11
2023-04-23T18:55:33.082Z,30.06
2023-04-23T18:58:01.314Z,30.01
2023-04-23T19:00:29.190Z,30.33
2023-04-23T19:02:56.848Z,30.34
2023-04-23T19:05:25.088Z,30.46
2023-04-23T19:07:52.895Z,30.62
2023-04-23T19:10:20.691Z,30.30
2023-04-23T19:12:48.408Z,30.68
2023-04-23T19:15:16.512Z,30.54
2023-04-23T19:17:44.361Z,30.58
2023-04-23T19:20:15.309Z,30.52
2023-04-23T19:22:43.053Z,30.69
2023-04-23T19:25:10.655Z,30.99
2023-04-23T19:27:38.276Z,30.86
2023-04-23T19:30:09.665Z,30.88
2023-04-23T19:32:37.430Z,30.74
2023-04-23T19:35:05.807Z,30.34
2023-04-23T19:37:34.028Z,30.75
2023-04-23T19:40:01.584Z,30.75
2023-04-23T19:42:32.704Z,30.63
2023-04-23T19:45:00.307Z,30.90
2023-04-23T19:47:28.020Z,31.15
2023-04-23T19:49:55.890Z,31.16
2023-04-23T19:52:26.048Z,31.18
2023-04-23T19:54:53.750Z,31.01
2023-04-23T19:57:22.371Z,30.57
2023-04-23T19:59:50.083Z,30.60
2023-04-23T20:02:17.663Z,30.61
2023-04-23T20:04:48.505Z,31.10
2023-04-23T20:07:17.510Z,30.99
2023-04-23T20:09:45.383Z,31.18
2023-04-23T20:12:14.384Z,31.21
2023-04-23T20:14:42.709Z,31.15
2023-04-23T20:17:10.525Z,31.20
2023-04-23T20:19:38.464Z,31.74
2023-04-23T20:22:06.953Z,31.91
2023-04-23T20:24:35.805Z,31.97
2023-04-23T20:27:03.634Z,32.24
2023-04-23T20:29:31.357Z,32.29
2023-04-23T20:31:59.375Z,32.14
2023-04-23T20:34:27.210Z,32.33
2023-04-23T20:37:00.315Z,32.75
2023-04-23T20:39:27.999Z,32.74
2023-04-23T20:41:57.870Z,32.77
2023-04-23T20:44:25.929Z,32.78
2023-04-23T20:46:54.076Z,33.06
2023-04-23T20:49:22.417Z,33.12
2023-04-23T20:51:50.160Z,33.03
2023-04-23T20:54:17.701Z,33.13
2023-04-23T20:56:45.393Z,33.22
2023-04-23T20:59:16.013Z,33.20
2023-04-23T21:01:43.720Z,32.64
2023-04-23T21:04:12.847Z,32.92
2023-04-23T21:06:41.450Z,32.66
2023-04-23T21:09:09.466Z,32.25
2023-04-23T21:11:37.172Z,31.75
2023-04-23T21:14:08.893Z,31.51
2023-04-23T21:16:38.506Z,31.34
2023-04-23T21:19:06.403Z,31.03
2023-04-23T21:21:34.125Z,30.96
2023-04-23T21:24:01.801Z,31.17
2023-04-23T21:26:30.919Z,31.21
2023-04-23T21:28:59.045Z,30.89
2023-04-23T21:31:42.169Z,31.77
2023-04-23T21:34:09.835Z,31.35
2023-04-23T21:36:37.441Z,30.87
2023-04-23T21:39:05.048Z,31.59
2023-04-23T21:41:32.889Z,30.75
2023-04-23T21:44:00.554Z,30.93
2023-04-23T21:46:28.280Z,30.79
2023-04-23T21:48:56.377Z,30.58
2023-04-23T21:51:25.370Z,31.05
2023-04-23T21:53:52.869Z,30.69
2023-04-23T21:56:21.674Z,30.92
2023-04-23T21:58:49.336Z,30.99
2023-04-23T22:01:18.329Z,31.39
2023-04-23T22:03:47.436Z,30.89
2023-04-23T22:06:16.108Z,31.10
2023-04-23T22:08:47.072Z,30.84
2023-04-23T22:11:14.954Z,31.13
2023-04-23T22:13:42.770Z,31.15
2023-04-23T22:16:26.805Z,31.08
2023-04-23T22:18:59.327Z,30.68
2023-04-23T22:21:28.475Z,30.77
2023-04-23T22:23:56.145Z,30.55
2023-04-23T22:26:23.822Z,30.99
2023-04-23T22:28:51.336Z,30.76
2023-04-23T22:31:19.027Z,30.84
2023-04-23T22:33:46.663Z,30.70
2023-04-23T22:36:14.432Z,30.89
2023-04-23T22:38:42.165Z,31.21
2023-04-23T22:41:09.637Z,31.30
2023-04-23T22:43:37.290Z,31.32
2023-04-23T22:46:05.163Z,30.97
2023-04-23T22:48:32.791Z,31.46
2023-04-23T22:51:00.290Z,31.36
2023-04-23T22:53:27.949Z,31.21
2023-04-23T22:55:56.028Z,31.38
2023-04-23T22:58:23.648Z,31.87
2023-04-23T23:00:53.718Z,31.92
2023-04-23T23:03:21.925Z,32.43
2023-04-23T23:05:49.525Z,32.37
2023-04-23T23:08:17.181Z,32.43
2023-04-23T23:10:44.709Z,31.84
2023-04-23T23:13:12.253Z,32.01
2023-04-23T23:15:39.751Z,32.71
2023-04-23T23:18:07.892Z,32.97
2023-04-23T23:20:35.822Z,33.26
2023-04-23T23:23:03.770Z,33.44
2023-04-23T23:25:31.557Z,33.61
2023-04-23T23:27:59.204Z,33.60
2023-04-23T23:30:26.863Z,33.87
2023-04-23T23:32:54.578Z,33.96
2023-04-23T23:35:22.103Z,34.32
2023-04-23T23:37:49.904Z,34.62
2023-04-23T23:40:17.795Z,34.81
2023-04-23T23:42:45.661Z,34.95
2023-04-23T23:45:13.197Z,34.18
2023-04-23T23:47:41.184Z,33.68
2023-04-23T23:50:09.416Z,34.16
2023-04-23T23:52:36.930Z,34.77
2023-04-23T23:55:05.165Z,35.08
2023-04-23T23:57:33.138Z,35.07
